createdAt,value
2023-06-25T00:01:27.202Z,99332.11
2023-06-25T00:03:54.663Z,99335.86
2023-06-25T00:06:23.333Z,99339.98
2023-06-25T00:08:50.803Z,99342.26
2023-06-25T00:11:18.235Z,99348.89
2023-06-25T00:13:45.645Z,99350.74
2023-06-25T00:16:13.149Z,99354.80
2023-06-25T00:18:40.521Z,99352.83
2023-06-25T00:21:07.919Z,99353.61
2023-06-25T00:23:35.337Z,99357.16
2023-06-25T00:26:02.843Z,99354.35
2023-06-25T00:28:30.299Z,99349.86
2023-06-25T00:30:58.735Z,99351.75
2023-06-25T00:33:26.203Z,99353.52
2023-06-25T00:35:56.576Z,99347.20
2023-06-25T00:38:24.048Z,99347.05
2023-06-25T00:40:51.796Z,99350.46
2023-06-25T00:43:22.378Z,99351.07
2023-06-25T00:45:50.142Z,99352.65
2023-06-25T00:48:17.496Z,99345.50
2023-06-25T00:50:45.006Z,99341.48
2023-06-25T00:53:14.076Z,99344.52
2023-06-25T00:55:41.498Z,99345.73
2023-06-25T00:58:09.007Z,99342.73
2023-06-25T01:00:36.595Z,99336.82
2023-06-25T01:03:08.493Z,99336.55
2023-06-25T01:05:44.902Z,99333.39
2023-06-25T01:08:12.376Z,99330.53
2023-06-25T01:10:39.935Z,99324.52
2023-06-25T01:13:07.441Z,99317.52
2023-06-25T01:15:35.673Z,99316.02
2023-06-25T01:18:03.904Z,99312.57
2023-06-25T01:20:31.670Z,99306.34
2023-06-25T01:22:59.213Z,99297.34
2023-06-25T01:25:26.677Z,99294.63
2023-06-25T01:27:54.069Z,99284.54
2023-06-25T01:30:26.636Z,99276.93
2023-06-25T01:32:54.329Z,99270.86
2023-06-25T01:35:21.802Z,99271.43
2023-06-25T01:37:49.298Z,99269.90
2023-06-25T01:40:17.685Z,99281.20
2023-06-25T01:42:45.100Z,99280.45
2023-06-25T01:45:13.230Z,99278.40
2023-06-25T01:47:42.555Z,99275.53
2023-06-25T01:50:10.257Z,99276.13
2023-06-25T01:52:39.304Z,99276.23
2023-06-25T01:55:07.563Z,99279.13
2023-06-25T01:57:34.944Z,99278.14
2023-06-25T02:00:02.496Z,99276.05
2023-06-25T02:02:30.535Z,99267.93
2023-06-25T02:04:58.089Z,99269.81
2023-06-25T02:07:25.557Z,99270.38
2023-06-25T02:09:53.549Z,99273.20
2023-06-25T02:12:20.967Z,99282.47
2023-06-25T02:14:48.347Z,99282.61
2023-06-25T02:17:15.675Z,99279.38
2023-06-25T02:19:43.097Z,99277.54
2023-06-25T02:22:10.472Z,99273.50
2023-06-25T02:24:37.948Z,99274.56
2023-06-25T02:27:05.752Z,99272.23
2023-06-25T02:29:33.729Z,99269.14
2023-06-25T02:32:01.169Z,99265.70
2023-06-25T02:34:28.645Z,99266.13
2023-06-25T02:36:56.050Z,99262.60
2023-06-25T02:39:23.496Z,99257.08
2023-06-25T02:41:50.958Z,99257.29
2023-06-25T02:44:18.478Z,99253.52
2023-06-25T02:46:46.442Z,99252.27
2023-06-25T02:49:14.820Z,99250.90
2023-06-25T02:51:42.394Z,99254.52
2023-06-25T02:54:09.824Z,99250.06
2023-06-25T02:56:37.325Z,99247.77
2023-06-25T02:59:04.967Z,99242.75
2023-06-25T03:01:32.501Z,99245.06
2023-06-25T03:03:59.974Z,99250.50
2023-06-25T03:06:27.642Z,99252.58
2023-06-25T03:08:55.093Z,99254.08
2023-06-25T03:11:22.581Z,99256.91
2023-06-25T03:13:50.479Z,99257.34
2023-06-25T03:16:18.003Z,99256.61
2023-06-25T03:18:45.540Z,99251.08
2023-06-25T03:21:13.052Z,99249.30
2023-06-25T03:23:40.885Z,99247.23
2023-06-25T03:26:08.373Z,99245.23
2023-06-25T03:28:36.782Z,99241.45
2023-06-25T03:31:04.629Z,99238.64
2023-06-25T03:33:37.231Z,99238.86
2023-06-25T03:36:04.942Z,99241.57
2023-06-25T03:38:32.658Z,99239.55
2023-06-25T03:41:00.131Z,99236.33
2023-06-25T03:43:27.942Z,99233.36
2023-06-25T03:45:55.557Z,99228.18
2023-06-25T03:48:24.572Z,99226.93
2023-06-25T03:50:52.321Z,99229.70
2023-06-25T03:53:19.708Z,99233.04
2023-06-25T03:55:47.219Z,99237.80
2023-06-25T03:58:14.627Z,99239.96
2023-06-25T04:00:42.918Z,99237.76
2023-06-25T04:03:10.727Z,99235.31
2023-06-25T04:05:38.461Z,99235.71
2023-06-25T04:08:06.165Z,99240.64
2023-06-25T04:10:34.081Z,99238.64
2023-06-25T04:13:02.103Z,99239.34
2023-06-25T04:15:29.647Z,99238.91
2023-06-25T04:17:57.097Z,99238.89
2023-06-25T04:20:27.522Z,99235.85
2023-06-25T04:22:58.498Z,99237.92
2023-06-25T04:25:25.964Z,99237.54
2023-06-25T04:27:55.758Z,99235.83
2023-06-25T04:30:23.618Z,99235.88
2023-06-25T04:32:52.243Z,99239.88
2023-06-25T04:35:22.743Z,99235.83
2023-06-25T04:37:50.337Z,99233.91
2023-06-25T04:40:17.997Z,99228.86
2023-06-25T04:42:45.493Z,99224.45
2023-06-25T04:45:12.919Z,99222.42
2023-06-25T04:47:40.374Z,99221.18
2023-06-25T04:50:08.183Z,99227.30
2023-06-25T04:52:35.694Z,99223.66
2023-06-25T04:55:03.150Z,99221.46
2023-06-25T04:57:32.198Z,99223.38
2023-06-25T04:59:59.666Z,99221.58
2023-06-25T05:02:27.089Z,99219.77
2023-06-25T05:04:54.540Z,99222.85
2023-06-25T05:07:22.088Z,99225.17
2023-06-25T05:09:49.596Z,99226.45
2023-06-25T05:12:17.096Z,99224.73
2023-06-25T05:14:45.098Z,99227.98
2023-06-25T05:17:12.510Z,99230.27
2023-06-25T05:19:40.430Z,99226.60
2023-06-25T05:22:07.846Z,99224.91
2023-06-25T05:24:35.273Z,99227.35
2023-06-25T05:27:02.783Z,99229.42
2023-06-25T05:29:30.208Z,99224.98
2023-06-25T05:31:57.655Z,99221.21
2023-06-25T05:34:25.166Z,99217.73
2023-06-25T05:36:52.561Z,99224.14
2023-06-25T05:39:20.032Z,99219.32
2023-06-25T05:41:47.446Z,99218.21
2023-06-25T05:44:14.888Z,99219.60
2023-06-25T05:46:42.743Z,99223.46
2023-06-25T05:49:12.813Z,99224.89
2023-06-25T05:51:40.254Z,99227.98
2023-06-25T05:54:07.746Z,99224.98
2023-06-25T05:56:35.262Z,99224.17
2023-06-25T05:59:02.758Z,99224.64
2023-06-25T06:01:30.253Z,99226.63
2023-06-25T06:03:57.827Z,99224.55
2023-06-25T06:06:25.564Z,99223.98
2023-06-25T06:08:52.936Z,99218.08
2023-06-25T06:11:20.337Z,99220.87
2023-06-25T06:13:47.834Z,99223.86
2023-06-25T06:16:15.244Z,99228.09
2023-06-25T06:18:42.684Z,99229.33
2023-06-25T06:21:10.120Z,99228.52
2023-06-25T06:23:37.521Z,99226.33
2023-06-25T06:26:05.009Z,99224.88
2023-06-25T06:28:32.418Z,99222.63
2023-06-25T06:30:59.898Z,99224.13
2023-06-25T06:33:27.349Z,99228.85
2023-06-25T06:35:55.115Z,99230.42
2023-06-25T06:38:22.558Z,99228.80
2023-06-25T06:40:50.017Z,99228.75
2023-06-25T06:43:17.438Z,99229.52
2023-06-25T06:45:44.837Z,99231.10
2023-06-25T06:48:12.319Z,99232.09
2023-06-25T06:50:39.797Z,99233.54
2023-06-25T06:53:07.394Z,99228.88
2023-06-25T06:55:35.221Z,99232.56
2023-06-25T06:58:02.793Z,99229.96
2023-06-25T07:00:30.279Z,99223.48
2023-06-25T07:02:58.844Z,99219.91
2023-06-25T07:05:26.371Z,99222.96
2023-06-25T07:07:53.911Z,99222.48
2023-06-25T07:10:21.372Z,99220.45
2023-06-25T07:12:48.767Z,99217.42
2023-06-25T07:15:16.305Z,99209.69
2023-06-25T07:17:43.842Z,99208.59
2023-06-25T07:20:11.962Z,99210.01
2023-06-25T07:22:41.433Z,99210.72
2023-06-25T07:25:10.218Z,99211.44
2023-06-25T07:27:38.096Z,99214.83
2023-06-25T07:30:06.417Z,99213.48
2023-06-25T07:32:33.861Z,99211.48
2023-06-25T07:35:01.358Z,99213.81
2023-06-25T07:37:28.780Z,99215.92
2023-06-25T07:39:56.187Z,99218.27
2023-06-25T07:42:23.687Z,99218.48
2023-06-25T07:44:57.222Z,99218.98
2023-06-25T07:47:26.289Z,99217.39
2023-06-25T07:49:53.749Z,99219.59
2023-06-25T07:52:21.179Z,99217.37
2023-06-25T07:54:48.642Z,99218.45
2023-06-25T07:57:16.490Z,99215.52
2023-06-25T07:59:53.547Z,99217.60
2023-06-25T08:02:22.203Z,99207.92
2023-06-25T08:04:50.634Z,99203.96
2023-06-25T08:07:18.455Z,99202.08
2023-06-25T08:09:46.765Z,99204.46
2023-06-25T08:12:16.165Z,99202.81
2023-06-25T08:14:44.496Z,99205.45
2023-06-25T08:17:11.934Z,99209.98
2023-06-25T08:19:39.295Z,99210.50
2023-06-25T08:22:06.941Z,99209.83
2023-06-25T08:24:34.357Z,99210.56
2023-06-25T08:27:01.808Z,99210.37
2023-06-25T08:29:29.312Z,99211.61
2023-06-25T08:31:56.678Z,99209.93
2023-06-25T08:34:24.037Z,99212.52
2023-06-25T08:36:51.442Z,99216.52
2023-06-25T08:39:18.896Z,99218.50
2023-06-25T08:41:46.306Z,99213.92
2023-06-25T08:44:13.747Z,99212.58
2023-06-25T08:46:41.156Z,99211.45
2023-06-25T08:49:10.272Z,99210.20
2023-06-25T08:51:37.780Z,99212.13
2023-06-25T08:54:05.939Z,99208.61
2023-06-25T08:56:33.380Z,99208.10
2023-06-25T08:59:00.827Z,99209.95
2023-06-25T09:01:28.295Z,99206.88
2023-06-25T09:03:55.729Z,99206.78
2023-06-25T09:06:23.352Z,99205.59
2023-06-25T09:08:50.759Z,99207.08
2023-06-25T09:11:18.200Z,99204.81
2023-06-25T09:13:46.144Z,99204.42
2023-06-25T09:16:13.599Z,99201.46
2023-06-25T09:18:41.062Z,99198.63
2023-06-25T09:21:09.785Z,99198.83
2023-06-25T09:23:38.804Z,99192.89
2023-06-25T09:26:09.431Z,99190.69
2023-06-25T09:28:53.237Z,99193.98
2023-06-25T09:31:20.859Z,99192.15
2023-06-25T09:33:52.775Z,99188.37
2023-06-25T09:36:36.982Z,99189.37
2023-06-25T09:39:06.922Z,99190.25
2023-06-25T09:41:36.039Z,99190.20
2023-06-25T09:44:05.298Z,99188.56
2023-06-25T09:46:37.979Z,99187.80
2023-06-25T09:49:08.831Z,99189.92
2023-06-25T09:51:55.284Z,99189.20
2023-06-25T09:54:23.720Z,99186.73
2023-06-25T09:56:51.352Z,99180.73
2023-06-25T09:59:18.958Z,99173.13
2023-06-25T10:01:46.646Z,99172.08
2023-06-25T10:04:14.467Z,99167.80
2023-06-25T10:06:42.280Z,99165.23
2023-06-25T10:09:09.849Z,99160.45
2023-06-25T10:11:37.595Z,99160.52
2023-06-25T10:14:05.685Z,99158.30
2023-06-25T10:19:04.664Z,99151.48
2023-06-25T10:21:32.535Z,99150.71
2023-06-25T10:24:01.492Z,99151.66
2023-06-25T10:26:34.140Z,99147.52
2023-06-25T10:29:02.534Z,99143.85
2023-06-25T10:31:40.642Z,99142.34
2023-06-25T10:34:09.154Z,99145.84
2023-06-25T10:36:36.662Z,99151.13
2023-06-25T10:39:07.162Z,99151.48
2023-06-25T10:41:34.666Z,99153.16
2023-06-25T10:44:02.277Z,99155.00
2023-06-25T10:46:32.539Z,99153.27
2023-06-25T10:49:02.876Z,99155.37
2023-06-25T10:51:30.439Z,99151.80
2023-06-25T10:53:57.879Z,99152.69
2023-06-25T10:56:25.384Z,99152.58
2023-06-25T10:58:57.336Z,99148.71
2023-06-25T11:01:25.566Z,99147.55
2023-06-25T11:03:53.233Z,99153.27
2023-06-25T11:06:20.998Z,99154.87
2023-06-25T11:08:49.327Z,99154.02
2023-06-25T11:11:16.956Z,99158.54
2023-06-25T11:13:44.411Z,99162.04
2023-06-25T11:16:11.802Z,99169.03
2023-06-25T11:18:39.279Z,99172.48
2023-06-25T11:21:06.842Z,99180.35
2023-06-25T11:23:34.415Z,99186.19
2023-06-25T11:26:04.291Z,99196.65
2023-06-25T11:28:31.971Z,99203.66
2023-06-25T11:31:02.215Z,99209.98
2023-06-25T11:33:29.764Z,99214.58
2023-06-25T11:36:08.195Z,99215.61
2023-06-25T11:38:35.927Z,99216.48
2023-06-25T11:41:03.396Z,99216.77
2023-06-25T11:43:33.280Z,99216.59
2023-06-25T11:46:02.671Z,99217.89
2023-06-25T11:48:30.984Z,99216.09
2023-06-25T11:51:06.580Z,99211.10
2023-06-25T11:53:34.472Z,99209.89
2023-06-25T11:56:02.093Z,99210.51
2023-06-25T11:58:30.283Z,99208.70
2023-06-25T12:00:57.798Z,99208.26
2023-06-25T12:03:25.434Z,99206.96
2023-06-25T12:05:53.190Z,99207.64
2023-06-25T12:08:20.759Z,99208.06
2023-06-25T12:10:48.257Z,99204.14
2023-06-25T12:13:15.728Z,99203.55
2023-06-25T12:15:43.800Z,99206.74
2023-06-25T12:18:11.304Z,99208.55
2023-06-25T12:20:38.768Z,99208.60
2023-06-25T12:23:06.257Z,99206.42
2023-06-25T12:25:33.748Z,99205.66
2023-06-25T12:28:01.467Z,99202.92
2023-06-25T12:30:28.940Z,99201.14
2023-06-25T12:32:57.062Z,99201.48
2023-06-25T12:35:25.209Z,99197.58
2023-06-25T12:37:56.034Z,99197.48
2023-06-25T12:40:23.545Z,99188.59
2023-06-25T12:42:50.966Z,99188.08
2023-06-25T12:45:21.166Z,99185.77
2023-06-25T12:47:48.595Z,99186.17
2023-06-25T12:50:17.318Z,99190.73
2023-06-25T12:52:45.252Z,99186.44
2023-06-25T12:55:12.711Z,99180.52
2023-06-25T12:57:41.035Z,99182.13
2023-06-25T13:00:17.474Z,99178.89
2023-06-25T13:02:48.551Z,99180.02
2023-06-25T13:05:16.399Z,99176.30
2023-06-25T13:07:43.795Z,99172.80
2023-06-25T13:10:11.485Z,99166.83
2023-06-25T13:12:38.924Z,99162.89
2023-06-25T13:15:07.303Z,99163.05
2023-06-25T13:17:37.705Z,99158.83
2023-06-25T13:20:06.361Z,99157.98
2023-06-25T13:22:33.956Z,99148.30
2023-06-25T13:25:01.437Z,99147.33
2023-06-25T13:27:28.828Z,99147.89
2023-06-25T13:29:56.336Z,99145.61
2023-06-25T13:32:23.941Z,99143.67
2023-06-25T13:34:51.469Z,99141.31
2023-06-25T13:37:19.259Z,99140.59
2023-06-25T13:39:46.710Z,99139.15
2023-06-25T13:42:14.239Z,99143.38
2023-06-25T13:44:41.675Z,99141.39
2023-06-25T13:47:09.241Z,99141.45
2023-06-25T13:49:36.715Z,99137.23
2023-06-25T13:52:04.987Z,99140.25
2023-06-25T13:54:32.538Z,99143.02
2023-06-25T13:56:59.953Z,99140.61
2023-06-25T13:59:27.410Z,99138.92
2023-06-25T14:01:54.837Z,99134.21
2023-06-25T14:04:22.416Z,99130.54
2023-06-25T14:06:50.114Z,99133.55
2023-06-25T14:09:17.662Z,99132.04
2023-06-25T14:11:45.222Z,99131.86
2023-06-25T14:14:12.624Z,99133.57
2023-06-25T14:16:40.108Z,99134.50
2023-06-25T14:19:07.737Z,99134.13
2023-06-25T14:21:35.170Z,99130.95
2023-06-25T14:24:02.594Z,99131.24
2023-06-25T14:26:30.113Z,99126.48
2023-06-25T14:29:10.232Z,99123.81
2023-06-25T14:31:39.070Z,99120.86
2023-06-25T14:34:06.700Z,99126.38
2023-06-25T14:36:34.893Z,99124.46
2023-06-25T14:39:02.319Z,99122.45
2023-06-25T14:41:30.789Z,99120.24
2023-06-25T14:43:58.196Z,99118.27
2023-06-25T14:46:25.718Z,99117.70
2023-06-25T14:48:53.156Z,99116.23
2023-06-25T14:51:21.213Z,99114.30
2023-06-25T14:53:48.781Z,99112.05
2023-06-25T14:56:16.992Z,99119.44
2023-06-25T14:58:44.474Z,99119.13
2023-06-25T15:01:11.973Z,99116.73
2023-06-25T15:03:39.673Z,99116.79
2023-06-25T15:06:11.966Z,99118.62
2023-06-25T15:08:44.236Z,99119.35
2023-06-25T15:11:11.651Z,99120.55
2023-06-25T15:13:40.147Z,99125.87
2023-06-25T15:16:28.451Z,99126.89
2023-06-25T15:19:03.242Z,99123.75
2023-06-25T15:21:45.063Z,99126.58
2023-06-25T15:27:28.385Z,99128.20
2023-06-25T15:30:10.759Z,99128.49
2023-06-25T15:32:54.640Z,99131.48
2023-06-25T15:38:19.325Z,99131.48
2023-06-25T15:40:50.085Z,99131.80
2023-06-25T15:43:17.472Z,99135.27
2023-06-25T15:45:45.652Z,99136.73
2023-06-25T15:48:13.159Z,99137.55
2023-06-25T15:50:40.861Z,99137.77
2023-06-25T15:53:08.521Z,99140.46
2023-06-25T15:55:35.995Z,99137.27
2023-06-25T15:58:03.732Z,99137.91
2023-06-25T16:00:31.268Z,99136.84
2023-06-25T16:02:58.984Z,99138.25
2023-06-25T16:05:26.535Z,99138.02
2023-06-25T16:07:53.986Z,99134.73
2023-06-25T16:10:21.452Z,99134.34
2023-06-25T16:12:48.849Z,99131.96
2023-06-25T16:15:16.466Z,99128.79
2023-06-25T16:17:43.962Z,99130.39
2023-06-25T16:20:12.669Z,99134.34
2023-06-25T16:22:41.124Z,99133.17
2023-06-25T16:25:09.089Z,99131.61
2023-06-25T16:27:36.553Z,99131.57
2023-06-25T16:30:06.880Z,99130.30
2023-06-25T16:32:35.053Z,99127.30
2023-06-25T16:35:02.842Z,99128.04
2023-06-25T16:37:30.300Z,99128.52
2023-06-25T16:39:57.724Z,99127.75
2023-06-25T16:42:25.452Z,99131.48
2023-06-25T16:44:52.919Z,99130.77
2023-06-25T16:47:20.415Z,99129.73
2023-06-25T16:49:48.114Z,99131.13
2023-06-25T16:52:15.643Z,99125.13
2023-06-25T16:54:43.197Z,99121.35
2023-06-25T16:57:10.699Z,99119.84
2023-06-25T16:59:38.099Z,99120.27
2023-06-25T17:02:06.373Z,99115.77
2023-06-25T17:04:38.353Z,99119.02
2023-06-25T17:07:06.427Z,99117.34
2023-06-25T17:09:34.416Z,99117.77
2023-06-25T17:12:01.880Z,99121.39
2023-06-25T17:14:29.286Z,99117.86
2023-06-25T17:16:56.764Z,99120.27
2023-06-25T17:19:24.163Z,99118.77
2023-06-25T17:21:52.395Z,99119.52
2023-06-25T17:24:19.853Z,99120.24
2023-06-25T17:26:47.269Z,99118.80
2023-06-25T17:29:14.725Z,99113.59
2023-06-25T17:31:42.133Z,99109.66
2023-06-25T17:34:09.607Z,99107.29
2023-06-25T17:36:37.000Z,99107.60
2023-06-25T17:39:04.529Z,99109.98
2023-06-25T17:41:32.063Z,99116.60
2023-06-25T17:43:59.715Z,99114.02
2023-06-25T17:46:30.170Z,99115.83
2023-06-25T17:48:59.452Z,99113.97
2023-06-25T17:51:27.260Z,99115.64
2023-06-25T17:53:54.837Z,99118.49
2023-06-25T17:56:22.327Z,99119.45
2023-06-25T17:58:49.972Z,99119.55
2023-06-25T18:01:17.530Z,99117.40
2023-06-25T18:03:44.986Z,99119.10
2023-06-25T18:06:12.377Z,99120.58
2023-06-25T18:08:40.130Z,99122.98
2023-06-25T18:11:23.987Z,99119.50
2023-06-25T18:13:51.607Z,99120.67
2023-06-25T18:16:20.676Z,99121.67
2023-06-25T18:18:49.250Z,99121.92
2023-06-25T18:21:16.687Z,99119.59
2023-06-25T18:23:44.105Z,99120.30
2023-06-25T18:26:12.011Z,99117.21
2023-06-25T18:28:39.393Z,99116.83
2023-06-25T18:31:07.611Z,99116.45
2023-06-25T18:33:35.175Z,99114.04
2023-06-25T18:36:02.742Z,99113.32
2023-06-25T18:38:30.218Z,99115.00
2023-06-25T18:40:58.656Z,99112.50
2023-06-25T18:43:27.647Z,99110.80
2023-06-25T18:45:55.108Z,99109.73
2023-06-25T18:48:23.224Z,99109.70
2023-06-25T18:50:50.933Z,99107.52
2023-06-25T18:53:18.387Z,99110.13
2023-06-25T18:55:45.870Z,99109.42
2023-06-25T18:58:16.936Z,99107.96
2023-06-25T19:00:45.015Z,99108.27
2023-06-25T19:03:13.817Z,99107.30
2023-06-25T19:05:42.063Z,99108.18
2023-06-25T19:08:09.516Z,99103.16
2023-06-25T19:10:37.171Z,99099.91
2023-06-25T19:13:05.002Z,99104.24
2023-06-25T19:15:32.488Z,99101.55
2023-06-25T19:17:59.989Z,99103.27
2023-06-25T19:20:27.829Z,99105.33
2023-06-25T19:23:19.756Z,99104.23
2023-06-25T19:25:43.153Z,99102.33
2023-06-25T19:28:10.659Z,99102.21
2023-06-25T19:30:39.757Z,99102.38
2023-06-25T19:33:08.123Z,99102.08
2023-06-25T19:35:35.690Z,99098.54
2023-06-25T19:38:03.431Z,99097.13
2023-06-25T19:40:30.844Z,99097.23
2023-06-25T19:42:58.309Z,99096.91
2023-06-25T19:45:25.764Z,99095.85
2023-06-25T19:47:53.445Z,99092.16
2023-06-25T19:50:21.867Z,99089.27
2023-06-25T19:52:49.282Z,99089.13
2023-06-25T19:55:18.598Z,99089.93
2023-06-25T19:57:46.384Z,99094.60
2023-06-25T20:00:13.900Z,99094.00
2023-06-25T20:02:42.871Z,99089.88
2023-06-25T20:05:12.592Z,99084.61
2023-06-25T20:07:40.265Z,99084.29
2023-06-25T20:10:08.216Z,99081.95
2023-06-25T20:12:35.764Z,99083.71
2023-06-25T20:15:04.670Z,99083.39
2023-06-25T20:17:32.065Z,99084.42
2023-06-25T20:19:59.454Z,99080.80
2023-06-25T20:22:26.926Z,99081.44
2023-06-25T20:24:54.338Z,99076.95
2023-06-25T20:27:21.782Z,99072.27
2023-06-25T20:29:49.205Z,99072.36
2023-06-25T20:32:16.621Z,99071.28
2023-06-25T20:34:44.068Z,99071.46
2023-06-25T20:37:11.534Z,99073.45
2023-06-25T20:39:39.005Z,99071.75
2023-06-25T20:42:06.528Z,99069.75
2023-06-25T20:44:37.495Z,99069.46
2023-06-25T20:47:06.537Z,99070.80
2023-06-25T20:49:34.018Z,99070.19
2023-06-25T20:52:01.473Z,99068.70
2023-06-25T20:54:29.705Z,99067.78
2023-06-25T20:56:57.120Z,99064.84
2023-06-25T20:59:24.794Z,99059.61
2023-06-25T21:02:00.756Z,99060.96
2023-06-25T21:04:28.225Z,99058.04
2023-06-25T21:06:58.158Z,99052.67
2023-06-25T21:09:25.629Z,99049.39
2023-06-25T21:11:53.413Z,99049.86
2023-06-25T21:14:22.626Z,99047.10
2023-06-25T21:16:51.507Z,99048.92
2023-06-25T21:19:18.897Z,99047.91
2023-06-25T21:21:46.299Z,99045.20
2023-06-25T21:24:13.886Z,99048.55
2023-06-25T21:26:41.397Z,99048.95
2023-06-25T21:29:08.797Z,99048.09
2023-06-25T21:31:36.302Z,99049.27
2023-06-25T21:34:04.347Z,99046.95
2023-06-25T21:36:32.526Z,99047.61
2023-06-25T21:39:07.566Z,99046.81
2023-06-25T21:41:35.209Z,99045.19
2023-06-25T21:44:02.679Z,99048.27
2023-06-25T21:46:30.153Z,99048.09
2023-06-25T21:48:57.613Z,99044.84
2023-06-25T21:51:25.070Z,99046.19
2023-06-25T21:53:53.210Z,99046.64
2023-06-25T21:56:20.688Z,99047.30
2023-06-25T21:58:48.095Z,99045.78
2023-06-25T22:01:15.458Z,99046.61
2023-06-25T22:03:42.903Z,99046.06
2023-06-25T22:06:11.236Z,99041.05
2023-06-25T22:08:38.754Z,99036.55
2023-06-25T22:11:06.213Z,99036.55
2023-06-25T22:13:33.602Z,99033.87
2023-06-25T22:16:01.016Z,99035.13
2023-06-25T22:18:28.567Z,99031.91
2023-06-25T22:20:56.109Z,99038.16
2023-06-25T22:23:23.478Z,99037.66
2023-06-25T22:25:50.961Z,99030.68
2023-06-25T22:28:18.344Z,99028.98
2023-06-25T22:30:45.726Z,99026.44
2023-06-25T22:33:13.220Z,99026.66
2023-06-25T22:35:40.615Z,99027.59
2023-06-25T22:38:08.627Z,99025.22
2023-06-25T22:40:36.260Z,99026.33
2023-06-25T22:43:05.440Z,99025.60
2023-06-25T22:45:34.299Z,99026.55
2023-06-25T22:48:02.323Z,99023.34
2023-06-25T22:50:32.806Z,99020.88
2023-06-25T22:53:00.384Z,99016.85
2023-06-25T22:55:27.788Z,99014.93
2023-06-25T22:57:55.245Z,99014.75
2023-06-25T23:00:23.256Z,99013.90
2023-06-25T23:02:50.758Z,99014.66
2023-06-25T23:05:18.489Z,99017.27
2023-06-25T23:07:46.286Z,99016.36
2023-06-25T23:10:13.818Z,99016.01
2023-06-25T23:12:41.234Z,99011.27
2023-06-25T23:15:11.423Z,99005.59
2023-06-25T23:17:39.413Z,99006.83
2023-06-25T23:20:07.351Z,99001.74
2023-06-25T23:22:34.860Z,99001.41
2023-06-25T23:25:09.727Z,98994.02
2023-06-25T23:27:43.276Z,98992.92
2023-06-25T23:30:12.330Z,98989.83
2023-06-25T23:32:41.339Z,98989.36
2023-06-25T23:35:09.881Z,98987.07
2023-06-25T23:37:45.571Z,98983.40
2023-06-25T23:40:13.313Z,98985.54
2023-06-25T23:42:40.844Z,98983.33
2023-06-25T23:45:08.629Z,98982.85
2023-06-25T23:47:36.027Z,98978.34
2023-06-25T23:50:03.524Z,98983.88
2023-06-25T23:52:31.036Z,98984.94
2023-06-25T23:54:58.444Z,98986.68
2023-06-25T23:57:26.352Z,98986.93
2023-06-25T23:59:53.748Z,98983.85
